Date,TemperatureHighF,TemperatureAvgF,TemperatureLowF,DewpointHighF,DewpointAvgF,DewpointLowF,HumidityHigh,HumidityAvg,HumidityLow,PressureMaxIn,PressureMinIn,WindSpeedMaxMPH,WindSpeedAvgMPH,GustSpeedMaxMPH,PrecipitationSumIn
2013-8-1,77.2,69.1,63.1,70.4,64.2,59.9,96,85,65,29.92,29.75,7,2,12,0.22
2013-8-2,75.9,66.4,58.3,66.2,61.8,57.5,98,86,65,29.88,29.81,5,1,11,0.07
2013-8-3,76.7,67.8,61.3,63.8,59.7,54.4,97,77,51,29.89,29.79,6,3,10,0.19
2013-8-4,70.1,63.8,56.6,61.2,56.3,52.4,92,78,60,30.03,29.89,6,3,14,0.00
2013-8-5,72.8,62.0,51.1,61.2,54.7,50.0,97,79,51,30.09,30.01,5,2,7,0.00
2013-8-6,76.7,64.9,51.2,63.3,57.3,50.6,98,79,50,30.05,29.98,4,2,8,0.00
2013-8-7,79.5,71.4,63.6,70.0,64.7,59.9,92,80,69,29.99,29.86,9,4,16,0.00
2013-8-8,83.6,72.5,66.5,74.6,68.7,64.0,97,89,68,29.93,29.87,9,2,12,1.04
2013-8-9,76.3,69.6,64.7,70.9,67.3,60.6,98,92,77,29.90,29.81,4,1,7,0.35
2013-8-10,71.3,65.4,54.4,62.2,58.1,52.2,96,78,54,30.08,29.90,5,2,13,0.00
2013-8-11,74.6,62.8,50.4,62.7,56.5,49.6,98,82,54,30.11,30.02,3,1,6,0.00
2013-8-12,77.6,67.5,59.0,68.1,61.6,57.3,95,82,59,30.04,29.84,3,1,5,0.00
2013-8-13,74.5,66.8,59.0,69.0,61.5,50.0,97,84,64,29.84,29.71,8,3,16,0.36
2013-8-14,67.6,59.9,53.1,57.9,52.1,49.6,93,76,54,30.06,29.81,7,4,15,0.00
2013-8-15,74.2,62.8,50.1,59.7,53.2,48.4,95,72,49,30.12,30.05,6,2,11,0.00
2013-8-16,74.8,64.3,53.6,61.0,54.9,51.4,94,74,50,30.16,30.10,4,2,6,0.00
2013-8-22,84.9,73.3,64.5,73.1,68.8,62.7,95,86,62,29.95,29.84,7,2,10,0.49
2013-8-23,72.0,63.8,54.2,63.1,58.5,53.4,99,84,60,30.19,29.95,8,2,13,0.01
2013-8-24,73.5,61.7,50.5,60.7,54.9,50.0,98,81,52,30.34,30.19,6,1,8,0.00
2013-8-25,81.4,66.0,49.9,65.1,58.0,49.4,98,78,45,30.33,30.11,4,1,7,0.00
2013-8-26,77.8,70.4,66.1,71.2,66.2,60.6,97,87,73,30.13,29.89,5,3,9,0.90
2013-8-27,82.1,72.6,66.1,74.5,69.8,65.5,99,91,73,29.92,29.84,7,1,10,0.00
2013-8-28,82.9,73.0,66.3,77.1,69.6,65.4,99,90,73,29.92,29.82,9,2,12,0.09
2013-8-29,81.2,71.1,63.2,74.0,68.0,62.3,99,91,74,30.01,29.91,7,2,10,0.01
2013-8-30,83.7,72.0,59.5,74.2,66.3,58.9,99,84,54,29.99,29.74,3,1,7,0.00
2013-8-31,81.7,74.1,69.6,74.1,70.5,68.2,96,89,76,29.83,29.69,5,2,12,0.01